createdAt,value
2018-06-14T00:00:02.103Z,51.75
2018-06-14T00:01:02.097Z,51.65
2018-06-14T00:02:02.077Z,51.75
2018-06-14T00:03:02.069Z,51.54
2018-06-14T00:04:02.059Z,51.84
2018-06-14T00:05:02.044Z,51.25
2018-06-14T00:06:02.055Z,51.84
2018-06-14T00:07:02.027Z,51.45
2018-06-14T00:08:02.018Z,51.54
2018-06-14T00:09:02.014Z,51.84
2018-06-14T00:10:01.993Z,51.75
2018-06-14T00:11:01.982Z,51.84
2018-06-14T00:12:01.974Z,51.65
2018-06-14T00:13:01.966Z,51.54
2018-06-14T00:14:01.949Z,52.04
2018-06-14T00:15:01.940Z,51.65
2018-06-14T00:16:01.930Z,51.65
2018-06-14T00:17:01.915Z,51.54
2018-06-14T00:18:01.910Z,51.84
2018-06-14T00:19:01.901Z,51.75
2018-06-14T00:20:01.898Z,51.65
2018-06-14T00:21:01.877Z,51.45
2018-06-14T00:22:01.869Z,51.84
2018-06-14T00:23:01.854Z,51.65
2018-06-14T00:24:01.870Z,51.65
2018-06-14T00:25:01.828Z,51.35
2018-06-14T00:26:01.824Z,51.15
2018-06-14T00:27:01.810Z,51.45
2018-06-14T00:28:01.798Z,52.14
2018-06-14T00:29:01.786Z,51.65
2018-06-14T00:30:01.785Z,51.95
2018-06-14T00:31:01.770Z,52.14
2018-06-14T00:32:01.756Z,52.04
2018-06-14T00:33:01.748Z,52.14
2018-06-14T00:34:01.746Z,51.84
2018-06-14T00:35:01.739Z,51.65
2018-06-14T00:36:01.711Z,52.14
2018-06-14T00:37:01.702Z,52.14
2018-06-14T00:38:01.692Z,51.95
2018-06-14T00:39:01.680Z,52.14
2018-06-14T00:40:01.738Z,52.04
2018-06-14T00:41:01.660Z,52.04
2018-06-14T00:42:01.643Z,52.04
2018-06-14T00:43:01.634Z,51.84
2018-06-14T00:44:01.628Z,52.04
2018-06-14T00:45:01.618Z,51.95
2018-06-14T00:46:01.599Z,52.14
2018-06-14T00:47:01.593Z,52.04
2018-06-14T00:48:01.579Z,51.95
2018-06-14T00:49:01.566Z,51.84
2018-06-14T00:50:01.582Z,52.04
2018-06-14T00:51:01.548Z,51.95
2018-06-14T00:52:01.542Z,52.04
2018-06-14T00:53:01.530Z,51.95
2018-06-14T00:54:01.512Z,51.84
2018-06-14T00:55:01.534Z,51.84
2018-06-14T00:56:01.495Z,51.75
2018-06-14T00:57:01.481Z,51.75
2018-06-14T00:58:01.476Z,51.54
2018-06-14T00:59:01.510Z,51.54
2018-06-14T01:00:01.452Z,51.95
2018-06-14T01:01:01.438Z,51.45
2018-06-14T01:02:01.433Z,51.84
2018-06-14T01:03:01.419Z,51.84
2018-06-14T01:04:01.413Z,51.65
2018-06-14T01:05:01.400Z,51.45
2018-06-14T01:06:01.386Z,51.65
2018-06-14T01:07:01.376Z,51.84
2018-06-14T01:08:01.368Z,51.95
2018-06-14T01:09:01.355Z,51.95
2018-06-14T01:10:01.342Z,51.65
2018-06-14T01:11:01.369Z,51.45
2018-06-14T01:12:01.320Z,51.54
2018-06-14T01:13:01.310Z,51.84
2018-06-14T01:14:01.300Z,51.65
2018-06-14T01:15:01.294Z,51.57
2018-06-14T01:16:01.275Z,51.45
2018-06-14T01:17:01.269Z,51.84
2018-06-14T01:18:01.258Z,52.74
2018-06-14T01:19:01.248Z,51.45
2018-06-14T01:20:01.239Z,51.35
2018-06-14T01:21:01.226Z,51.45
2018-06-14T01:22:01.215Z,51.45
2018-06-14T01:23:01.202Z,52.55
2018-06-14T01:24:01.188Z,51.57
2018-06-14T01:25:01.179Z,52.64
2018-06-14T01:26:01.172Z,52.55
2018-06-14T01:27:01.220Z,52.74
2018-06-14T01:28:01.191Z,52.55
2018-06-14T01:29:01.192Z,51.45
2018-06-14T01:30:01.173Z,52.84
2018-06-14T01:31:01.114Z,51.75
2018-06-14T01:32:01.138Z,51.54
2018-06-14T01:33:01.096Z,52.64
2018-06-14T01:34:01.083Z,52.44
2018-06-14T01:35:01.090Z,52.64
2018-06-14T01:36:01.058Z,52.67
2018-06-14T01:37:01.049Z,52.74
2018-06-14T01:38:01.046Z,52.44
2018-06-14T01:39:01.034Z,52.47
2018-06-14T01:40:01.022Z,52.55
2018-06-14T01:41:01.008Z,52.44
2018-06-14T01:42:00.996Z,52.64
2018-06-14T01:43:01.011Z,52.47
2018-06-14T01:44:00.972Z,52.34
2018-06-14T01:45:00.965Z,52.55
2018-06-14T01:46:00.956Z,52.25
2018-06-14T01:47:00.950Z,52.25
2018-06-14T01:48:00.930Z,52.27
2018-06-14T01:49:00.925Z,52.34
2018-06-14T01:50:00.913Z,52.25
2018-06-14T01:51:00.901Z,52.25
2018-06-14T01:52:00.894Z,52.55
2018-06-14T01:53:00.884Z,52.37
2018-06-14T01:54:00.891Z,52.25
2018-06-14T01:55:00.858Z,52.25
2018-06-14T01:56:00.847Z,52.25
2018-06-14T01:57:00.831Z,52.55
2018-06-14T01:58:00.828Z,52.25
2018-06-14T01:59:00.818Z,52.17
2018-06-14T02:00:00.807Z,52.14
2018-06-14T02:01:00.801Z,52.34
2018-06-14T02:02:00.780Z,52.57
2018-06-14T02:03:00.768Z,51.87
2018-06-14T02:04:00.761Z,52.34
2018-06-14T02:05:00.771Z,51.97
2018-06-14T02:06:00.733Z,51.95
2018-06-14T02:07:00.728Z,52.04
2018-06-14T02:08:00.713Z,52.14
2018-06-14T02:09:00.700Z,52.14
2018-06-14T02:10:00.707Z,51.87
2018-06-14T02:11:00.686Z,52.04
2018-06-14T02:12:00.672Z,52.04
2018-06-14T02:13:00.664Z,52.04
2018-06-14T02:14:00.645Z,52.07
2018-06-14T02:15:00.644Z,52.04
2018-06-14T02:16:00.624Z,51.87
2018-06-14T02:17:00.614Z,51.97
2018-06-14T02:18:00.610Z,52.04
2018-06-14T02:19:00.596Z,51.97
2018-06-14T02:20:00.584Z,52.14
2018-06-14T02:21:00.569Z,52.47
2018-06-14T02:22:00.563Z,52.14
2018-06-14T02:23:00.551Z,52.34
2018-06-14T02:24:00.553Z,52.37
2018-06-14T02:25:00.533Z,52.04
2018-06-14T02:26:00.515Z,52.37
2018-06-14T02:27:00.508Z,52.07
2018-06-14T02:28:00.493Z,52.34
2018-06-14T02:29:00.484Z,52.07
2018-06-14T02:30:00.476Z,52.25
2018-06-14T02:31:00.462Z,51.95
2018-06-14T02:32:00.451Z,52.25
2018-06-14T02:33:00.443Z,52.14
2018-06-14T02:34:00.424Z,52.04
2018-06-14T02:35:00.445Z,52.27
2018-06-14T02:36:00.405Z,52.37
2018-06-14T02:37:00.398Z,52.67
2018-06-14T02:38:00.383Z,52.55
2018-06-14T02:39:00.370Z,52.04
2018-06-14T02:40:00.359Z,52.25
2018-06-14T02:41:00.349Z,52.47
2018-06-14T02:42:00.345Z,52.64
2018-06-14T02:43:00.329Z,52.67
2018-06-14T02:44:00.319Z,52.67
2018-06-14T02:45:00.310Z,52.57
2018-06-14T02:46:00.296Z,52.34
2018-06-14T02:47:00.283Z,52.44
2018-06-14T02:48:00.275Z,52.34
2018-06-14T02:49:00.261Z,52.97
2018-06-14T02:50:00.262Z,52.47
2018-06-14T02:51:00.287Z,52.07
2018-06-14T02:52:00.231Z,52.64
2018-06-14T02:53:00.217Z,52.44
2018-06-14T02:54:00.214Z,52.47
2018-06-14T02:55:00.199Z,52.37
2018-06-14T02:56:00.191Z,52.37
2018-06-14T02:57:00.183Z,52.44
2018-06-14T02:58:00.172Z,52.44
2018-06-14T02:59:00.158Z,52.67
2018-06-14T03:00:00.152Z,52.47
2018-06-14T03:01:00.136Z,52.34
2018-06-14T03:02:00.145Z,52.97
2018-06-14T03:03:00.139Z,52.44
2018-06-14T03:04:00.105Z,52.87
2018-06-14T03:05:00.096Z,52.57
2018-06-14T03:06:00.078Z,52.87
2018-06-14T03:07:00.097Z,52.67
2018-06-14T03:08:00.065Z,52.55
2018-06-14T03:09:00.055Z,52.64
2018-06-14T03:10:00.040Z,52.97
2018-06-14T03:11:00.027Z,52.64
2018-06-14T03:12:00.019Z,52.37
2018-06-14T03:13:00.002Z,52.87
2018-06-14T03:13:59.997Z,52.94
2018-06-14T03:14:59.982Z,52.97
2018-06-14T03:15:59.972Z,52.76
2018-06-14T03:16:59.963Z,52.76
2018-06-14T03:17:59.948Z,52.94
2018-06-14T03:18:59.936Z,52.97
2018-06-14T03:19:59.928Z,52.76
2018-06-14T03:20:59.912Z,52.64
2018-06-14T03:21:59.908Z,52.67
2018-06-14T03:22:59.922Z,52.67
2018-06-14T03:23:59.880Z,52.97
2018-06-14T03:24:59.867Z,52.57
2018-06-14T03:25:59.864Z,52.87
2018-06-14T03:26:59.851Z,52.76
2018-06-14T03:27:59.853Z,52.64
2018-06-14T03:28:59.831Z,52.76
2018-06-14T03:29:59.812Z,52.84
2018-06-14T03:30:59.804Z,52.57
2018-06-14T03:31:59.792Z,53.27
2018-06-14T03:32:59.781Z,52.67
2018-06-14T03:33:59.803Z,52.76
2018-06-14T03:34:59.764Z,52.87
2018-06-14T03:35:59.752Z,53.17
2018-06-14T03:36:59.741Z,52.74
2018-06-14T03:37:59.726Z,52.87
2018-06-14T03:38:59.758Z,53.06
2018-06-14T03:39:59.711Z,53.06
2018-06-14T03:40:59.699Z,52.67
2018-06-14T03:41:59.682Z,53.17
2018-06-14T03:42:59.673Z,53.04
2018-06-14T03:43:59.662Z,52.87
2018-06-14T03:44:59.673Z,52.87
2018-06-14T03:45:59.645Z,53.17
2018-06-14T03:46:59.633Z,52.97
2018-06-14T03:47:59.624Z,52.97
2018-06-14T03:48:59.615Z,53.17
2018-06-14T03:49:59.599Z,52.97
2018-06-14T03:50:59.588Z,53.17
2018-06-14T03:51:59.663Z,53.04
2018-06-14T03:52:59.565Z,53.77
2018-06-14T03:53:59.559Z,53.77
2018-06-14T03:54:59.549Z,53.04
2018-06-14T03:55:59.533Z,53.06
2018-06-14T03:56:59.520Z,53.06
2018-06-14T03:57:59.516Z,53.06
2018-06-14T03:58:59.507Z,52.94
2018-06-14T03:59:59.494Z,52.97
2018-06-14T04:00:59.483Z,53.77
2018-06-14T04:01:59.468Z,53.17
2018-06-14T04:02:59.456Z,53.17
2018-06-14T04:03:59.466Z,53.77
2018-06-14T04:04:59.442Z,53.56
2018-06-14T04:05:59.428Z,53.47
2018-06-14T04:06:59.422Z,53.04
2018-06-14T04:07:59.422Z,53.56
2018-06-14T04:08:59.407Z,53.06
2018-06-14T04:09:59.389Z,53.77
2018-06-14T04:10:59.372Z,53.06
2018-06-14T04:11:59.361Z,52.97
2018-06-14T04:12:59.356Z,53.06
2018-06-14T04:13:59.340Z,52.97
2018-06-14T04:14:59.391Z,52.97
2018-06-14T04:15:59.320Z,53.47
2018-06-14T04:16:59.303Z,53.06
2018-06-14T04:17:59.299Z,53.56
2018-06-14T04:18:59.289Z,53.06
2018-06-14T04:19:59.309Z,53.77
2018-06-14T04:20:59.282Z,53.56
2018-06-14T04:21:59.249Z,53.66
2018-06-14T04:22:59.244Z,53.66
2018-06-14T04:23:59.230Z,53.66
2018-06-14T04:24:59.219Z,53.56
2018-06-14T04:25:59.239Z,53.66
2018-06-14T04:26:59.198Z,53.77
2018-06-14T04:27:59.186Z,53.36
2018-06-14T04:28:59.172Z,53.77
2018-06-14T04:29:59.167Z,53.47
2018-06-14T04:30:59.157Z,53.47
2018-06-14T04:31:59.165Z,53.66
2018-06-14T04:32:59.135Z,53.27
2018-06-14T04:33:59.128Z,53.66
2018-06-14T04:34:59.110Z,53.56
2018-06-14T04:35:59.126Z,53.66
2018-06-14T04:36:59.084Z,53.56
2018-06-14T04:37:59.080Z,53.56
2018-06-14T04:38:59.067Z,53.56
2018-06-14T04:39:59.056Z,53.36
2018-06-14T04:40:59.048Z,53.77
2018-06-14T04:41:59.031Z,53.56
2018-06-14T04:42:59.033Z,53.56
2018-06-14T04:43:59.013Z,53.56
2018-06-14T04:44:59.004Z,53.56
2018-06-14T04:45:58.987Z,53.77
2018-06-14T04:46:59.006Z,53.54
2018-06-14T04:47:58.965Z,53.77
2018-06-14T04:48:58.955Z,53.77
2018-06-14T04:49:58.953Z,53.66
2018-06-14T04:50:58.934Z,53.66
2018-06-14T04:51:58.933Z,53.47
2018-06-14T04:52:58.918Z,53.36
2018-06-14T04:53:58.900Z,53.36
2018-06-14T04:54:58.888Z,53.66
2018-06-14T04:55:58.953Z,53.64
2018-06-14T04:56:58.941Z,53.47
2018-06-14T04:57:58.892Z,53.56
2018-06-14T04:58:58.922Z,53.66
2018-06-14T04:59:58.836Z,53.47
2018-06-14T05:00:58.847Z,53.36
2018-06-14T05:01:58.821Z,53.47
2018-06-14T05:02:58.805Z,53.17
2018-06-14T05:03:58.820Z,53.06
2018-06-14T05:04:58.790Z,53.27
2018-06-14T05:05:58.770Z,53.47
2018-06-14T05:06:58.768Z,53.27
2018-06-14T05:07:58.770Z,53.47
2018-06-14T05:08:58.739Z,53.27
2018-06-14T05:09:58.734Z,53.36
2018-06-14T05:10:58.786Z,53.36
2018-06-14T05:11:58.709Z,53.77
2018-06-14T05:12:58.700Z,53.27
2018-06-14T05:13:58.790Z,53.06
2018-06-14T05:14:58.673Z,52.67
2018-06-14T05:15:58.670Z,52.76
2018-06-14T05:16:58.662Z,52.79
2018-06-14T05:17:58.642Z,52.67
2018-06-14T05:18:58.636Z,53.06
2018-06-14T05:19:58.624Z,53.17
2018-06-14T05:20:58.614Z,53.06
2018-06-14T05:21:58.614Z,53.06
2018-06-14T05:22:58.700Z,53.06
2018-06-14T05:23:58.583Z,53.17
2018-06-14T05:24:58.599Z,52.87
2018-06-14T05:25:58.554Z,52.67
2018-06-14T05:26:58.554Z,53.17
2018-06-14T05:27:58.532Z,52.67
2018-06-14T05:28:58.523Z,52.67
2018-06-14T05:29:58.513Z,52.87
2018-06-14T05:30:58.511Z,52.67
2018-06-14T05:31:58.588Z,52.97
2018-06-14T05:32:58.479Z,52.76
2018-06-14T05:33:58.474Z,52.76
2018-06-14T05:34:58.458Z,53.06
2018-06-14T05:35:58.449Z,52.76
2018-06-14T05:36:58.435Z,52.87
2018-06-14T05:37:58.429Z,52.67
2018-06-14T05:38:58.414Z,52.67
2018-06-14T05:39:58.398Z,52.76
2018-06-14T05:40:58.396Z,53.27
2018-06-14T05:41:58.449Z,53.17
2018-06-14T05:42:58.372Z,53.06
2018-06-14T05:43:58.367Z,52.97
2018-06-14T05:44:58.356Z,53.06
2018-06-14T05:45:58.337Z,52.97
2018-06-14T05:46:58.324Z,53.36
2018-06-14T05:47:58.315Z,53.06
2018-06-14T05:48:58.307Z,53.06
2018-06-14T05:49:58.295Z,53.06
2018-06-14T05:50:58.356Z,53.06
2018-06-14T05:51:58.271Z,53.66
2018-06-14T05:52:58.260Z,53.47
2018-06-14T05:53:58.246Z,53.17
2018-06-14T05:54:58.238Z,52.97
2018-06-14T05:55:58.229Z,53.56
2018-06-14T05:56:58.215Z,53.56
2018-06-14T05:57:58.210Z,53.06
2018-06-14T05:58:58.201Z,53.56
2018-06-14T05:59:58.176Z,53.66
2018-06-14T06:00:58.170Z,53.56
2018-06-14T06:01:58.158Z,52.87
2018-06-14T06:02:58.152Z,53.27
2018-06-14T06:03:58.140Z,53.06
2018-06-14T06:04:58.125Z,53.06
2018-06-14T06:05:58.211Z,53.27
2018-06-14T06:06:58.106Z,53.17
2018-06-14T06:07:58.225Z,53.27
2018-06-14T06:08:58.083Z,52.87
2018-06-14T06:09:58.071Z,53.06
2018-06-14T06:10:58.056Z,53.17
2018-06-14T06:11:58.088Z,53.56
2018-06-14T06:12:58.037Z,52.97
2018-06-14T06:13:58.056Z,53.06
2018-06-14T06:14:58.021Z,53.64
2018-06-14T06:15:58.007Z,53.06
2018-06-14T06:16:57.995Z,53.06
2018-06-14T06:17:57.981Z,53.06
2018-06-14T06:18:57.993Z,53.14
2018-06-14T06:19:57.968Z,53.66
2018-06-14T06:20:57.954Z,53.54
2018-06-14T06:21:57.940Z,53.06
2018-06-14T06:22:57.923Z,53.64
2018-06-14T06:23:57.916Z,53.64
2018-06-14T06:24:57.909Z,53.54
2018-06-14T06:25:57.898Z,53.06
2018-06-14T06:26:57.894Z,53.54
2018-06-14T06:27:57.877Z,53.54
2018-06-14T06:28:57.862Z,53.54
2018-06-14T06:29:57.855Z,52.94
2018-06-14T06:30:57.836Z,53.66
2018-06-14T06:31:57.836Z,53.56
2018-06-14T06:32:57.820Z,53.74
2018-06-14T06:33:57.813Z,53.54
2018-06-14T06:34:57.800Z,53.66
2018-06-14T06:35:57.833Z,53.64
2018-06-14T06:36:57.769Z,53.64
2018-06-14T06:37:57.762Z,53.77
2018-06-14T06:38:57.755Z,53.64
2018-06-14T06:39:57.770Z,53.44
2018-06-14T06:40:57.729Z,53.64
2018-06-14T06:41:57.725Z,53.54
2018-06-14T06:42:57.708Z,53.74
2018-06-14T06:43:57.697Z,53.54
2018-06-14T06:44:57.689Z,53.74
2018-06-14T06:45:57.695Z,53.44
2018-06-14T06:46:57.669Z,53.64
2018-06-14T06:47:57.656Z,53.64
2018-06-14T06:48:57.644Z,53.54
2018-06-14T06:49:57.631Z,53.74
2018-06-14T06:50:57.651Z,53.54
2018-06-14T06:51:57.610Z,53.44
2018-06-14T06:52:57.602Z,53.24
2018-06-14T06:53:57.589Z,53.44
2018-06-14T06:54:57.572Z,53.34
2018-06-14T06:55:57.560Z,53.54
2018-06-14T06:56:57.554Z,53.56
2018-06-14T06:57:57.545Z,53.54
2018-06-14T06:58:57.595Z,53.64
2018-06-14T06:59:57.523Z,53.64
2018-06-14T07:00:57.512Z,53.54
2018-06-14T07:01:57.517Z,53.44
2018-06-14T07:02:57.485Z,53.44
2018-06-14T07:03:57.474Z,53.74
2018-06-14T07:04:57.464Z,53.64
2018-06-14T07:05:57.492Z,53.54
2018-06-14T07:06:57.463Z,53.54
2018-06-14T07:07:57.431Z,53.64
2018-06-14T07:08:57.435Z,53.64
2018-06-14T07:09:57.412Z,53.54
2018-06-14T07:10:57.401Z,53.64
2018-06-14T07:11:57.463Z,53.34
2018-06-14T07:12:57.386Z,53.54
2018-06-14T07:13:57.367Z,53.54
2018-06-14T07:14:57.353Z,53.54
2018-06-14T07:15:57.342Z,53.64
2018-06-14T07:16:57.334Z,53.54
2018-06-14T07:17:57.326Z,53.74
2018-06-14T07:18:57.315Z,53.54
2018-06-14T07:19:57.304Z,53.04
2018-06-14T07:20:57.292Z,53.74
2018-06-14T07:21:57.405Z,53.44
2018-06-14T07:22:57.265Z,53.54
2018-06-14T07:23:57.259Z,53.74
2018-06-14T07:24:57.254Z,53.54
2018-06-14T07:25:57.232Z,53.54
2018-06-14T07:26:57.264Z,53.74
2018-06-14T07:27:57.213Z,53.64
2018-06-14T07:28:57.204Z,53.54
2018-06-14T07:29:57.193Z,53.64
2018-06-14T07:30:57.182Z,53.54
2018-06-14T07:31:57.173Z,53.54
2018-06-14T07:32:57.178Z,53.64
2018-06-14T07:33:57.155Z,53.64
2018-06-14T07:34:57.133Z,53.64
2018-06-14T07:35:57.128Z,53.54
2018-06-14T07:36:57.120Z,53.64
2018-06-14T07:37:57.129Z,53.44
2018-06-14T07:38:57.101Z,53.54
2018-06-14T07:39:57.091Z,53.54
2018-06-14T07:40:57.071Z,53.64
2018-06-14T07:41:57.060Z,53.64
2018-06-14T07:42:57.112Z,53.44
2018-06-14T07:43:57.071Z,53.54
2018-06-14T07:44:57.027Z,53.64
2018-06-14T07:45:57.015Z,53.54
2018-06-14T07:46:57.007Z,53.74
2018-06-14T07:47:56.992Z,53.74
2018-06-14T07:48:56.983Z,53.64
2018-06-14T07:49:56.974Z,53.64
2018-06-14T07:50:56.965Z,53.64
2018-06-14T07:51:56.957Z,53.74
2018-06-14T07:52:56.948Z,53.74
2018-06-14T07:53:56.947Z,53.74
2018-06-14T07:54:56.920Z,53.74
2018-06-14T07:55:56.914Z,53.44
2018-06-14T07:56:56.897Z,53.74
2018-06-14T07:57:56.884Z,53.64
2018-06-14T07:58:56.899Z,53.74
2018-06-14T07:59:56.880Z,53.64
2018-06-14T08:00:56.851Z,53.74
2018-06-14T08:01:56.847Z,53.54
2018-06-14T08:02:56.885Z,53.54
2018-06-14T08:03:56.825Z,53.34
2018-06-14T08:04:56.896Z,53.54
2018-06-14T08:05:56.799Z,53.74
2018-06-14T08:06:56.785Z,53.44
2018-06-14T08:07:56.772Z,52.94
2018-06-14T08:08:56.765Z,53.14
2018-06-14T08:09:56.813Z,53.04
2018-06-14T08:10:56.755Z,53.34
2018-06-14T08:11:56.736Z,53.44
2018-06-14T08:12:56.720Z,53.04
2018-06-14T08:13:56.710Z,53.34
2018-06-14T08:14:56.753Z,53.34
2018-06-14T08:15:56.697Z,53.44
2018-06-14T08:16:56.681Z,53.34
2018-06-14T08:17:56.664Z,53.44
2018-06-14T08:18:56.649Z,53.04
2018-06-14T08:19:56.637Z,53.44
2018-06-14T08:20:56.634Z,53.74
2018-06-14T08:21:56.624Z,53.04
2018-06-14T08:22:56.613Z,53.54
2018-06-14T08:23:56.611Z,53.04
2018-06-14T08:24:56.592Z,52.94
2018-06-14T08:25:56.602Z,53.44
2018-06-14T08:26:56.564Z,53.64
2018-06-14T08:27:56.572Z,53.54
2018-06-14T08:28:56.554Z,53.54
2018-06-14T08:29:56.531Z,53.54
2018-06-14T08:30:56.518Z,53.54
2018-06-14T08:31:56.510Z,53.54
2018-06-14T08:32:56.497Z,53.54
2018-06-14T08:33:56.490Z,53.14
2018-06-14T08:34:56.480Z,53.44
2018-06-14T08:35:56.479Z,53.54
2018-06-14T08:36:56.478Z,53.64
2018-06-14T08:37:56.459Z,53.64
2018-06-14T08:38:56.432Z,53.64
2018-06-14T08:39:56.418Z,53.64
2018-06-14T08:40:56.447Z,53.74
2018-06-14T08:41:56.426Z,53.04
2018-06-14T08:42:56.397Z,53.04
2018-06-14T08:43:56.377Z,52.94
2018-06-14T08:44:56.368Z,53.04
2018-06-14T08:45:56.391Z,53.74
2018-06-14T08:46:56.376Z,53.74
2018-06-14T08:47:56.345Z,53.04
2018-06-14T08:48:56.324Z,52.74
2018-06-14T08:49:56.312Z,53.14
2018-06-14T08:50:56.313Z,53.14
2018-06-14T08:51:56.314Z,52.94
2018-06-14T08:52:56.282Z,53.44
2018-06-14T08:53:56.281Z,52.94
2018-06-14T08:54:56.264Z,52.94
2018-06-14T08:55:56.261Z,52.84
2018-06-14T08:56:56.258Z,53.14
2018-06-14T08:57:56.248Z,53.44
2018-06-14T08:58:56.220Z,53.44
2018-06-14T08:59:56.213Z,53.64
2018-06-14T09:00:56.195Z,53.54
2018-06-14T09:01:56.183Z,52.84
2018-06-14T09:02:56.194Z,53.74
2018-06-14T09:03:56.158Z,53.14
2018-06-14T09:04:56.153Z,53.74
2018-06-14T09:05:56.151Z,52.94
2018-06-14T09:06:56.132Z,53.64
2018-06-14T09:07:56.135Z,53.04
2018-06-14T09:08:56.110Z,53.14
2018-06-14T09:09:56.097Z,53.14
2018-06-14T09:10:56.079Z,52.94
2018-06-14T09:11:56.068Z,53.04
2018-06-14T09:12:56.062Z,53.44
2018-06-14T09:13:56.072Z,53.04
2018-06-14T09:14:56.048Z,53.54
2018-06-14T09:15:56.029Z,53.44
2018-06-14T09:16:56.062Z,53.74
2018-06-14T09:17:56.008Z,53.24
2018-06-14T09:18:56.019Z,53.74
2018-06-14T09:19:55.991Z,53.34
2018-06-14T09:20:55.973Z,53.54
2018-06-14T09:21:55.977Z,53.64
2018-06-14T09:22:55.949Z,53.64
2018-06-14T09:23:55.972Z,53.14
2018-06-14T09:24:55.928Z,53.14
2018-06-14T09:25:55.922Z,53.04
2018-06-14T09:26:55.918Z,53.64
2018-06-14T09:27:55.903Z,53.54
2018-06-14T09:28:55.888Z,53.64
2018-06-14T09:29:55.903Z,53.64
2018-06-14T09:30:55.861Z,53.74
2018-06-14T09:31:55.860Z,53.74
2018-06-14T09:32:55.841Z,53.54
2018-06-14T09:33:55.829Z,53.64
2018-06-14T09:34:55.840Z,53.64
2018-06-14T09:35:55.803Z,53.54
2018-06-14T09:36:55.798Z,53.54
2018-06-14T09:37:55.792Z,53.54
2018-06-14T09:38:55.777Z,53.44
2018-06-14T09:39:55.759Z,53.54
2018-06-14T09:40:55.764Z,53.44
2018-06-14T09:41:55.743Z,53.44
2018-06-14T09:42:55.792Z,53.64
2018-06-14T09:43:55.723Z,53.52
2018-06-14T09:44:55.713Z,53.54
2018-06-14T09:45:55.718Z,53.44
2018-06-14T09:46:55.684Z,53.54
2018-06-14T09:47:55.681Z,53.54
2018-06-14T09:48:55.667Z,53.44
2018-06-14T09:49:55.654Z,53.64
2018-06-14T09:50:55.683Z,53.22
2018-06-14T09:51:55.631Z,53.11
2018-06-14T09:52:55.624Z,53.54
2018-06-14T09:53:55.614Z,53.54
2018-06-14T09:54:55.606Z,53.44
2018-06-14T09:55:55.625Z,53.64
2018-06-14T09:56:55.588Z,53.64
2018-06-14T09:57:55.567Z,53.52
2018-06-14T09:58:55.555Z,53.54
2018-06-14T09:59:55.546Z,53.54
2018-06-14T10:00:55.534Z,53.54
2018-06-14T10:01:55.530Z,53.52
2018-06-14T10:02:55.521Z,53.61
2018-06-14T10:03:55.501Z,53.41
2018-06-14T10:04:55.491Z,53.71
2018-06-14T10:05:55.484Z,53.44
2018-06-14T10:06:55.502Z,53.52
2018-06-14T10:07:55.466Z,53.64
2018-06-14T10:08:55.450Z,53.54
2018-06-14T10:09:55.454Z,53.44
2018-06-14T10:10:55.424Z,53.61
2018-06-14T10:11:55.415Z,53.54
2018-06-14T10:12:55.407Z,53.41
2018-06-14T10:13:55.395Z,53.44
2018-06-14T10:14:55.388Z,53.44
2018-06-14T10:15:55.380Z,53.52
2018-06-14T10:16:55.364Z,53.54
2018-06-14T10:17:55.380Z,53.54
2018-06-14T10:18:55.338Z,53.71
2018-06-14T10:19:55.336Z,53.64
2018-06-14T10:20:55.324Z,53.54
2018-06-14T10:21:55.312Z,53.74
2018-06-14T10:22:55.295Z,53.41
2018-06-14T10:23:55.288Z,53.54
2018-06-14T10:24:55.278Z,53.74
2018-06-14T10:25:55.268Z,53.52
2018-06-14T10:26:55.259Z,53.44
2018-06-14T10:27:55.248Z,53.54
2018-06-14T10:28:55.242Z,53.61
2018-06-14T10:29:55.222Z,53.52
2018-06-14T10:30:55.208Z,53.52
2018-06-14T10:31:55.198Z,53.02
2018-06-14T10:32:55.190Z,53.02
2018-06-14T10:33:55.198Z,53.52
2018-06-14T10:34:55.170Z,52.32
2018-06-14T10:35:55.152Z,52.89
2018-06-14T10:36:55.148Z,53.11
2018-06-14T10:37:55.137Z,53.31
2018-06-14T10:38:55.155Z,52.99
2018-06-14T10:39:55.116Z,53.19
2018-06-14T10:40:55.102Z,53.09
2018-06-14T10:41:55.088Z,53.09
2018-06-14T10:42:55.076Z,53.29
2018-06-14T10:43:55.065Z,53.49
2018-06-14T10:44:55.059Z,53.29
2018-06-14T10:45:55.048Z,53.19
2018-06-14T10:46:55.049Z,53.52
2018-06-14T10:47:55.029Z,53.02
2018-06-14T10:48:55.016Z,53.09
2018-06-14T10:49:55.030Z,53.39
2018-06-14T10:50:54.988Z,53.41
2018-06-14T10:51:54.986Z,53.11
2018-06-14T10:52:54.973Z,53.49
2018-06-14T10:53:54.960Z,53.22
2018-06-14T10:54:54.946Z,52.89
2018-06-14T10:55:54.935Z,53.69
2018-06-14T10:56:54.938Z,53.61
2018-06-14T10:57:54.921Z,53.52
2018-06-14T10:58:54.907Z,53.22
2018-06-14T10:59:54.917Z,53.11
2018-06-14T11:00:54.912Z,53.41
2018-06-14T11:01:54.882Z,53.22
2018-06-14T11:02:54.858Z,53.22
2018-06-14T11:03:54.847Z,53.31
2018-06-14T11:04:54.838Z,53.22
2018-06-14T11:05:54.879Z,53.22
2018-06-14T11:06:54.825Z,53.52
2018-06-14T11:07:54.804Z,53.02
2018-06-14T11:08:54.795Z,52.12
2018-06-14T11:09:54.786Z,52.89
2018-06-14T11:10:54.780Z,53.02
2018-06-14T11:11:54.816Z,52.72
2018-06-14T11:12:54.754Z,52.32
2018-06-14T11:13:54.744Z,53.02
2018-06-14T11:14:54.729Z,52.22
2018-06-14T11:15:54.717Z,52.81
2018-06-14T11:16:54.709Z,52.81
2018-06-14T11:17:54.705Z,52.72
2018-06-14T11:18:54.690Z,52.72
2018-06-14T11:19:54.680Z,52.81
2018-06-14T11:20:54.669Z,53.31
2018-06-14T11:21:54.656Z,52.51
2018-06-14T11:22:54.673Z,53.02
2018-06-14T11:23:54.634Z,53.41
2018-06-14T11:24:54.624Z,53.61
2018-06-14T11:25:54.616Z,53.52
2018-06-14T11:26:54.603Z,53.31
2018-06-14T11:27:54.590Z,52.51
2018-06-14T11:28:54.586Z,53.02
2018-06-14T11:29:54.589Z,53.71
2018-06-14T11:30:54.562Z,53.22
2018-06-14T11:31:54.552Z,53.11
2018-06-14T11:32:54.541Z,52.72
2018-06-14T11:33:54.530Z,52.32
2018-06-14T11:34:54.512Z,52.81
2018-06-14T11:35:54.503Z,52.32
2018-06-14T11:36:54.494Z,52.69
2018-06-14T11:37:54.486Z,53.61
2018-06-14T11:38:54.478Z,53.39
2018-06-14T11:39:54.465Z,52.32
2018-06-14T11:40:54.452Z,52.42
2018-06-14T11:41:54.444Z,52.00
2018-06-14T11:42:54.434Z,52.00
2018-06-14T11:43:54.426Z,52.49
2018-06-14T11:44:54.412Z,52.99
2018-06-14T11:45:54.401Z,52.79
2018-06-14T11:46:54.382Z,52.39
2018-06-14T11:47:54.370Z,52.19
2018-06-14T11:48:54.386Z,52.02
2018-06-14T11:49:54.355Z,52.49
2018-06-14T11:50:54.343Z,52.09
2018-06-14T11:51:54.333Z,52.29
2018-06-14T11:52:54.318Z,52.99
2018-06-14T11:53:54.305Z,52.00
2018-06-14T11:54:54.305Z,52.79
2018-06-14T11:55:54.290Z,52.69
2018-06-14T11:56:54.276Z,52.59
2018-06-14T11:57:54.262Z,52.99
2018-06-14T11:58:54.251Z,53.11
2018-06-14T11:59:54.241Z,53.11
2018-06-14T12:00:54.229Z,52.59
2018-06-14T12:01:54.222Z,53.09
2018-06-14T12:02:54.212Z,53.39
2018-06-14T12:03:54.201Z,53.02
2018-06-14T12:04:54.218Z,52.51
2018-06-14T12:05:54.175Z,52.99
2018-06-14T12:06:54.161Z,52.72
2018-06-14T12:07:54.149Z,52.42
2018-06-14T12:08:54.141Z,52.59
2018-06-14T12:09:54.133Z,52.89
2018-06-14T12:10:54.128Z,52.79
2018-06-14T12:11:54.107Z,52.19
2018-06-14T12:12:54.104Z,52.00
2018-06-14T12:13:54.089Z,52.59
2018-06-14T12:14:54.081Z,52.39
2018-06-14T12:15:54.105Z,51.79
2018-06-14T12:16:54.058Z,52.29
2018-06-14T12:17:54.044Z,52.79
2018-06-14T12:18:54.031Z,52.79
2018-06-14T12:19:54.026Z,52.29
2018-06-14T12:20:54.032Z,52.09
2018-06-14T12:21:54.003Z,52.29
2018-06-14T12:22:53.996Z,52.00
2018-06-14T12:23:53.985Z,52.79
2018-06-14T12:24:53.971Z,52.89
2018-06-14T12:25:53.982Z,53.19
2018-06-14T12:26:53.946Z,52.39
2018-06-14T12:27:53.944Z,52.29
2018-06-14T12:28:53.930Z,52.39
2018-06-14T12:29:53.916Z,52.19
2018-06-14T12:30:53.944Z,52.00
2018-06-14T12:31:53.890Z,52.59
2018-06-14T12:32:53.882Z,52.29
2018-06-14T12:33:53.873Z,52.29
2018-06-14T12:34:53.866Z,52.09
2018-06-14T12:35:53.854Z,52.00
2018-06-14T12:36:53.843Z,52.02
2018-06-14T12:37:53.832Z,52.09
2018-06-14T12:38:53.815Z,52.09
2018-06-14T12:39:53.804Z,52.00
2018-06-14T12:40:53.797Z,52.00
2018-06-14T12:41:53.808Z,52.00
2018-06-14T12:42:53.782Z,52.00
2018-06-14T12:43:53.761Z,52.59
2018-06-14T12:44:53.753Z,53.09
2018-06-14T12:45:53.869Z,53.69
2018-06-14T12:46:53.737Z,52.29
2018-06-14T12:47:53.737Z,52.39
2018-06-14T12:48:53.710Z,52.59
2018-06-14T12:49:53.698Z,52.69
2018-06-14T12:50:53.684Z,52.59
2018-06-14T12:51:53.701Z,52.00